Nakhon Phanom, Thailand

11:24 AM ICT on August 31, 2016 (GMT +0700)
Nakhon Phanom | | Change Station

Elev 584 ft 17.38 °N, 104.64 °E | Updated 24 minutes ago

Mostly Cloudy
Mostly Cloudy
82 °F
Feels Like 92 °F
N
2
Wind Variable Wind from Variable

Today
High -- | Low -- °F
--% Chance of Precip.
Yesterday
High -- | Low -- °F
Precip. -- in
Pressure 29.86 in
Visibility 6.2 miles
Clouds Few 800 ft
Mostly Cloudy 2300 ft
Heat Index 92 °F
Dew Point 79 °F
Humidity 89%
Rainfall 0.00 in
Snow Depth Not available.
5:46 AM 6:15 PM
Waning Crescent, 2% visible
METAR VTUW 310400Z AUTO VRB02KT 9999 FEW008/// BKN023/// 28/26 Q1011 A2985
Pressure 29.86 in
Visibility 6.2 miles
Clouds Few 800 ft
Mostly Cloudy 2300 ft
Heat Index 92 °F
Dew Point 79 °F
Humidity 89%
Rainfall 0.00 in
Snow Depth Not available.
5:46 AM 6:15 PM
Waning Crescent, 2% visible
METAR VTUW 310400Z AUTO VRB02KT 9999 FEW008/// BKN023/// 28/26 Q1011 A2985

10-Day Weather Forecast

No radar image for this location.
×

Almanac

Astronomy

Aug. 31, 2016 Rise Set
Actual Time
Civil Twilight
Nautical Twilight
Astronomical Twilight
Moon
Length of Visible Light
Length of Day
Tomorrow will be .
, % of the Moon is Illuminated

Today's Extremes

Country Highs Country Lows

Community

WunderPhotos

Upload Photos

1,936,035 photos uploaded!

WunderBlog® & News

Nearby

Air Quality

  Air Quality AQ Index Pollutant
Not available.

Snow Depth

Station Depth Elevation

Earthquake Activity

City Distance Mag. Time & Date
Minimum magnitude displayed is 2.5.

Coastal Water Temperatures

Place Temperature

Stations

Nearby Weather Stations

Station Location Temp. Windchill Dew Point Humidity Wind Precip. Elev Updated Type